SXS8SR LTAI-LKPR
Flight info
| Callsign | SXS8SR |
|---|---|
| Flight time | N/A |
| Altitude | 36000 |
| Route | EKSEN UT337 EKNUD UQ26 BKZ DCT IBLAX DCT KOMAN DCT PETOS DCT EVRIK DCT NIPUR DCT BALAP DCT LALES DCT TUMKA DCT VLM |
| Aircraft | B738/M-SDE2E3FGHIRWXY/LB1 |
Departure
| Time | 2026-05-07 18:30 |
|---|---|
| Airport | Antalya International Airport (LTAI) |
Arrival
| Time | N/A |
|---|---|
| Airport | Václav Havel Airport Prague (LKPR) |
| Time | Latitude | Longitude | Altitude | Speed | Heading |
|---|---|---|---|---|---|
| 2026-05-07 18:14 | 36.89536 | 30.80115 | 175 ft | 0 kts | 186° |
| 2026-05-07 18:19 | 36.89545 | 30.80116 | 175 ft | 3 kts | 185° |
| 2026-05-07 18:19 | 36.89565 | 30.80118 | 175 ft | 3 kts | 181° |
| 2026-05-07 18:19 | 36.89585 | 30.80117 | 175 ft | 3 kts | 170° |
| 2026-05-07 18:20 | 36.89603 | 30.80110 | 175 ft | 3 kts | 142° |
| 2026-05-07 18:20 | 36.89612 | 30.80098 | 175 ft | 1 kts | 99° |
| 2026-05-07 18:20 | 36.89612 | 30.80095 | 175 ft | 1 kts | 97° |
| 2026-05-07 18:23 | 36.89612 | 30.80100 | 175 ft | 2 kts | 97° |
| 2026-05-07 18:23 | 36.89608 | 30.80142 | 175 ft | 8 kts | 97° |
| 2026-05-07 18:23 | 36.89600 | 30.80234 | 175 ft | 13 kts | 96° |
| 2026-05-07 18:24 | 36.89590 | 30.80346 | 175 ft | 13 kts | 96° |
| 2026-05-07 18:24 | 36.89580 | 30.80455 | 175 ft | 13 kts | 96° |
| 2026-05-07 18:24 | 36.89570 | 30.80563 | 175 ft | 12 kts | 96° |
| 2026-05-07 18:24 | 36.89549 | 30.80663 | 175 ft | 12 kts | 135° |
| 2026-05-07 18:25 | 36.89469 | 30.80674 | 175 ft | 12 kts | 186° |
| 2026-05-07 18:25 | 36.89371 | 30.80661 | 175 ft | 16 kts | 186° |
| 2026-05-07 18:25 | 36.89254 | 30.80645 | 175 ft | 17 kts | 186° |
| 2026-05-07 18:25 | 36.89139 | 30.80629 | 175 ft | 16 kts | 186° |
| 2026-05-07 18:26 | 36.89026 | 30.80614 | 175 ft | 17 kts | 186° |
| 2026-05-07 18:26 | 36.88896 | 30.80596 | 175 ft | 19 kts | 186° |
| 2026-05-07 18:26 | 36.88767 | 30.80579 | 176 ft | 18 kts | 186° |
| 2026-05-07 18:26 | 36.88642 | 30.80561 | 176 ft | 18 kts | 186° |
| 2026-05-07 18:27 | 36.88521 | 30.80544 | 175 ft | 17 kts | 186° |
| 2026-05-07 18:27 | 36.88405 | 30.80529 | 176 ft | 17 kts | 186° |
| 2026-05-07 18:27 | 36.88290 | 30.80513 | 175 ft | 17 kts | 186° |
| 2026-05-07 18:27 | 36.88182 | 30.80500 | 175 ft | 13 kts | 171° |
| 2026-05-07 18:28 | 36.88144 | 30.80570 | 175 ft | 6 kts | 97° |
| 2026-05-07 18:28 | 36.88143 | 30.80588 | 175 ft | 1 kts | 97° |
| 2026-05-07 18:28 | 36.88141 | 30.80608 | 175 ft | 4 kts | 97° |
| 2026-05-07 18:28 | 36.88134 | 30.80679 | 174 ft | 11 kts | 94° |
| 2026-05-07 18:29 | 36.88166 | 30.80733 | 175 ft | 6 kts | 12° |
| 2026-05-07 18:29 | 36.88190 | 30.80736 | 175 ft | 6 kts | 5° |
| 2026-05-07 18:29 | 36.88436 | 30.80769 | 176 ft | 77 kts | 6° |
| 2026-05-07 18:29 | 36.89242 | 30.80879 | 175 ft | 153 kts | 7° |
| 2026-05-07 18:30 | 36.90453 | 30.81089 | 631 ft | 189 kts | 7° |
| 2026-05-07 18:30 | 36.91825 | 30.81269 | 1494 ft | 204 kts | 9° |
| 2026-05-07 18:30 | 36.93178 | 30.81893 | 2329 ft | 211 kts | 26° |
| 2026-05-07 18:30 | 36.94522 | 30.82679 | 2941 ft | 218 kts | 23° |
| 2026-05-07 18:31 | 36.95937 | 30.83422 | 3544 ft | 223 kts | 21° |
| 2026-05-07 18:31 | 36.97381 | 30.84151 | 4275 ft | 223 kts | 21° |
| 2026-05-07 18:31 | 36.98818 | 30.84866 | 5054 ft | 222 kts | 21° |
| 2026-05-07 18:31 | 37.00299 | 30.85596 | 5463 ft | 241 kts | 20° |
| 2026-05-07 18:32 | 37.01937 | 30.86395 | 5798 ft | 260 kts | 20° |
| 2026-05-07 18:32 | 37.03643 | 30.87226 | 6491 ft | 265 kts | 20° |
| 2026-05-07 18:32 | 37.05367 | 30.88066 | 7228 ft | 267 kts | 20° |
| 2026-05-07 18:32 | 37.07144 | 30.88784 | 7906 ft | 271 kts | 7° |
| 2026-05-07 18:33 | 37.09027 | 30.88677 | 8612 ft | 273 kts | 350° |
| 2026-05-07 18:33 | 37.10901 | 30.88218 | 9326 ft | 276 kts | 348° |
| 2026-05-07 18:33 | 37.12801 | 30.87721 | 9909 ft | 280 kts | 348° |
| 2026-05-07 18:33 | 37.14716 | 30.87219 | 10014 ft | 282 kts | 348° |
| 2026-05-07 18:34 | 37.16637 | 30.86721 | 10028 ft | 281 kts | 349° |
| 2026-05-07 18:34 | 37.18548 | 30.86232 | 10033 ft | 280 kts | 349° |
| 2026-05-07 18:34 | 37.20430 | 30.85753 | 10039 ft | 279 kts | 349° |
| 2026-05-07 18:34 | 37.22362 | 30.85264 | 10061 ft | 283 kts | 349° |
| 2026-05-07 18:35 | 37.24349 | 30.84764 | 10207 ft | 303 kts | 349° |
| 2026-05-07 18:35 | 37.26495 | 30.84223 | 10416 ft | 322 kts | 349° |
| 2026-05-07 18:35 | 37.28693 | 30.83670 | 10929 ft | 329 kts | 349° |
| 2026-05-07 18:35 | 37.30956 | 30.83100 | 11611 ft | 331 kts | 348° |
| 2026-05-07 18:36 | 37.33230 | 30.82527 | 12283 ft | 336 kts | 348° |
| 2026-05-07 18:36 | 37.35526 | 30.81946 | 12978 ft | 338 kts | 348° |
| 2026-05-07 18:36 | 37.37852 | 30.81355 | 13653 ft | 343 kts | 348° |
| 2026-05-07 18:36 | 37.40207 | 30.80757 | 14287 ft | 347 kts | 348° |
| 2026-05-07 18:37 | 37.42601 | 30.80190 | 14950 ft | 350 kts | 352° |
| 2026-05-07 18:37 | 37.45045 | 30.80095 | 15648 ft | 353 kts | 360° |
| 2026-05-07 18:37 | 37.47508 | 30.80234 | 16329 ft | 356 kts | 1° |
| 2026-05-07 18:37 | 37.50001 | 30.80390 | 16968 ft | 360 kts | 0° |
| 2026-05-07 18:38 | 37.52515 | 30.80374 | 17572 ft | 362 kts | 357° |
| 2026-05-07 18:38 | 37.55013 | 30.80369 | 18242 ft | 365 kts | 358° |
| 2026-05-07 18:38 | 37.57603 | 30.80409 | 18871 ft | 367 kts | 358° |
| 2026-05-07 18:38 | 37.60163 | 30.80456 | 19459 ft | 369 kts | 358° |
| 2026-05-07 18:39 | 37.62742 | 30.80500 | 20018 ft | 372 kts | 358° |
| 2026-05-07 18:39 | 37.65345 | 30.80537 | 20546 ft | 376 kts | 358° |
| 2026-05-07 18:39 | 37.67935 | 30.80569 | 21106 ft | 377 kts | 358° |
| 2026-05-07 18:39 | 37.70573 | 30.80598 | 21647 ft | 380 kts | 358° |
| 2026-05-07 18:40 | 37.73233 | 30.80625 | 22086 ft | 383 kts | 358° |
| 2026-05-07 18:40 | 37.75903 | 30.80651 | 22620 ft | 385 kts | 358° |
| 2026-05-07 18:40 | 37.78584 | 30.80676 | 23204 ft | 386 kts | 358° |
| 2026-05-07 18:40 | 37.81274 | 30.80702 | 23707 ft | 387 kts | 358° |
| 2026-05-07 18:41 | 37.83982 | 30.80727 | 24052 ft | 392 kts | 358° |
| 2026-05-07 18:41 | 37.86730 | 30.80752 | 24450 ft | 395 kts | 358° |
| 2026-05-07 18:41 | 37.89478 | 30.80778 | 24909 ft | 396 kts | 358° |
| 2026-05-07 18:41 | 37.92250 | 30.80804 | 25345 ft | 398 kts | 358° |
| 2026-05-07 18:42 | 37.95031 | 30.80830 | 25757 ft | 400 kts | 358° |
| 2026-05-07 18:42 | 37.97822 | 30.80857 | 26139 ft | 403 kts | 358° |
| 2026-05-07 18:42 | 38.00628 | 30.80883 | 26517 ft | 405 kts | 358° |
| 2026-05-07 18:42 | 38.03451 | 30.80910 | 26893 ft | 407 kts | 358° |
| 2026-05-07 18:43 | 38.06288 | 30.80937 | 27275 ft | 408 kts | 358° |
| 2026-05-07 18:43 | 38.09143 | 30.80964 | 27619 ft | 411 kts | 358° |
| 2026-05-07 18:43 | 38.11036 | 30.80982 | 27849 ft | 413 kts | 358° |
| 2026-05-07 18:43 | 38.14873 | 30.80759 | 28349 ft | 412 kts | 351° |
| 2026-05-07 18:44 | 38.16762 | 30.80457 | 28597 ft | 413 kts | 350° |
| 2026-05-07 18:44 | 38.19616 | 30.79970 | 28929 ft | 415 kts | 350° |
| 2026-05-07 18:44 | 38.23424 | 30.79309 | 29359 ft | 418 kts | 350° |
| 2026-05-07 18:44 | 38.26315 | 30.78812 | 29686 ft | 420 kts | 350° |
| 2026-05-07 18:45 | 38.28276 | 30.78479 | 29912 ft | 421 kts | 350° |
| 2026-05-07 18:45 | 38.31190 | 30.77990 | 30238 ft | 423 kts | 350° |
| 2026-05-07 18:45 | 38.34112 | 30.77504 | 30497 ft | 425 kts | 350° |
| 2026-05-07 18:45 | 38.37051 | 30.77017 | 30798 ft | 425 kts | 350° |
| 2026-05-07 18:46 | 38.39939 | 30.76540 | 31190 ft | 423 kts | 350° |
| 2026-05-07 18:46 | 38.42853 | 30.76059 | 31620 ft | 420 kts | 349° |
| 2026-05-07 18:46 | 38.45746 | 30.75580 | 31992 ft | 419 kts | 349° |
| 2026-05-07 18:46 | 38.48643 | 30.75100 | 32308 ft | 418 kts | 349° |
| 2026-05-07 18:47 | 38.51526 | 30.74621 | 32649 ft | 417 kts | 349° |
| 2026-05-07 18:47 | 38.54398 | 30.74144 | 33039 ft | 415 kts | 349° |
| 2026-05-07 18:47 | 38.57257 | 30.73669 | 33401 ft | 414 kts | 349° |
| 2026-05-07 18:47 | 38.60108 | 30.73194 | 33740 ft | 413 kts | 349° |
| 2026-05-07 18:48 | 38.62952 | 30.72721 | 34130 ft | 410 kts | 349° |
| 2026-05-07 18:48 | 38.65776 | 30.72251 | 34532 ft | 406 kts | 349° |
| 2026-05-07 18:48 | 38.68572 | 30.71784 | 34874 ft | 404 kts | 349° |
| 2026-05-07 18:48 | 38.71356 | 30.71319 | 35122 ft | 404 kts | 349° |
| 2026-05-07 18:49 | 38.74150 | 30.70851 | 35300 ft | 405 kts | 349° |
| 2026-05-07 18:49 | 38.76946 | 30.70383 | 35499 ft | 406 kts | 349° |
| 2026-05-07 18:49 | 38.79786 | 30.69907 | 35719 ft | 406 kts | 349° |
| 2026-05-07 18:49 | 38.82590 | 30.69431 | 35943 ft | 405 kts | 347° |
| 2026-05-07 18:50 | 38.85330 | 30.68627 | 36136 ft | 402 kts | 340° |
| 2026-05-07 18:50 | 38.90418 | 30.65727 | 36190 ft | 401 kts | 331° |
| 2026-05-07 18:51 | 38.95331 | 30.62474 | 36192 ft | 399 kts | 331° |
| 2026-05-07 18:51 | 39.00263 | 30.59224 | 36184 ft | 397 kts | 331° |
| 2026-05-07 18:52 | 39.05199 | 30.55992 | 36182 ft | 399 kts | 331° |
| 2026-05-07 18:52 | 39.10171 | 30.52743 | 36173 ft | 400 kts | 331° |
| 2026-05-07 18:53 | 39.15144 | 30.49489 | 36181 ft | 402 kts | 331° |
| 2026-05-07 18:53 | 39.20138 | 30.46217 | 36182 ft | 403 kts | 331° |
| 2026-05-07 18:54 | 39.25144 | 30.42931 | 36170 ft | 404 kts | 331° |
| 2026-05-07 18:54 | 39.30151 | 30.39639 | 36177 ft | 404 kts | 331° |
| 2026-05-07 18:55 | 39.35161 | 30.36340 | 36162 ft | 404 kts | 331° |
| 2026-05-07 18:55 | 39.40195 | 30.33019 | 36180 ft | 403 kts | 331° |
| 2026-05-07 18:56 | 39.45177 | 30.29728 | 36169 ft | 402 kts | 331° |
| 2026-05-07 18:56 | 39.50165 | 30.26446 | 36161 ft | 402 kts | 333° |
| 2026-05-07 18:57 | 39.55323 | 30.23588 | 36160 ft | 403 kts | 336° |
| 2026-05-07 18:57 | 39.60529 | 30.20890 | 36172 ft | 402 kts | 336° |
| 2026-05-07 18:58 | 39.65714 | 30.18165 | 36161 ft | 402 kts | 335° |
| 2026-05-07 18:58 | 39.70891 | 30.15406 | 36177 ft | 402 kts | 335° |
| 2026-05-07 18:59 | 39.76068 | 30.12632 | 36159 ft | 402 kts | 335° |
| 2026-05-07 18:59 | 39.81229 | 30.09861 | 36173 ft | 405 kts | 335° |
| 2026-05-07 19:00 | 39.86450 | 30.07055 | 36140 ft | 405 kts | 335° |
| 2026-05-07 19:00 | 39.91656 | 30.04252 | 36135 ft | 404 kts | 335° |
| 2026-05-07 19:01 | 39.96842 | 30.01456 | 36143 ft | 403 kts | 335° |
| 2026-05-07 19:01 | 40.01981 | 29.98678 | 36138 ft | 402 kts | 335° |
| 2026-05-07 19:02 | 40.07142 | 29.95881 | 36129 ft | 401 kts | 335° |
| 2026-05-07 19:02 | 40.12291 | 29.93086 | 36128 ft | 401 kts | 335° |
| 2026-05-07 19:03 | 40.17441 | 29.90287 | 36134 ft | 401 kts | 335° |
| 2026-05-07 19:03 | 40.22606 | 29.87474 | 36138 ft | 402 kts | 335° |
| 2026-05-07 19:04 | 40.27780 | 29.84652 | 36120 ft | 403 kts | 335° |
| 2026-05-07 19:04 | 40.32966 | 29.81818 | 36123 ft | 404 kts | 335° |
| 2026-05-07 19:05 | 40.38163 | 29.78974 | 36124 ft | 405 kts | 335° |
| 2026-05-07 19:05 | 40.43373 | 29.76118 | 36115 ft | 406 kts | 335° |
| 2026-05-07 19:06 | 40.48561 | 29.73269 | 36115 ft | 406 kts | 335° |
| 2026-05-07 19:06 | 40.56408 | 29.68950 | 36103 ft | 406 kts | 335° |
| 2026-05-07 19:07 | 40.61618 | 29.66078 | 36111 ft | 405 kts | 335° |
| 2026-05-07 19:07 | 40.66764 | 29.62865 | 36101 ft | 402 kts | 326° |
| 2026-05-07 19:08 | 40.71180 | 29.58385 | 36109 ft | 401 kts | 320° |
| 2026-05-07 19:08 | 40.75512 | 29.53762 | 36115 ft | 400 kts | 320° |
| 2026-05-07 19:09 | 40.79854 | 29.49156 | 36118 ft | 400 kts | 320° |
| 2026-05-07 19:09 | 40.84178 | 29.44587 | 36127 ft | 400 kts | 320° |
| 2026-05-07 19:10 | 40.88558 | 29.39959 | 36135 ft | 400 kts | 320° |
| 2026-05-07 19:10 | 40.92909 | 29.35354 | 36133 ft | 401 kts | 320° |
| 2026-05-07 19:11 | 40.97269 | 29.30731 | 36131 ft | 401 kts | 320° |
| 2026-05-07 19:11 | 41.01620 | 29.26109 | 36128 ft | 402 kts | 320° |
| 2026-05-07 19:12 | 41.05983 | 29.21466 | 36118 ft | 402 kts | 320° |
| 2026-05-07 19:12 | 41.10349 | 29.16812 | 36118 ft | 403 kts | 320° |
| 2026-05-07 19:13 | 41.14753 | 29.12177 | 36111 ft | 404 kts | 322° |
| 2026-05-07 19:13 | 41.19270 | 29.07738 | 36101 ft | 405 kts | 322° |
| 2026-05-07 19:14 | 41.23820 | 29.03303 | 36105 ft | 406 kts | 322° |
| 2026-05-07 19:14 | 41.27610 | 28.99578 | 36093 ft | 405 kts | 322° |
| 2026-05-07 19:15 | 41.32802 | 28.94441 | 36098 ft | 402 kts | 322° |
| 2026-05-07 19:15 | 41.37253 | 28.90022 | 36101 ft | 400 kts | 322° |
| 2026-05-07 19:16 | 41.40965 | 28.86329 | 36103 ft | 399 kts | 322° |
| 2026-05-07 19:16 | 41.45443 | 28.81868 | 36104 ft | 399 kts | 322° |
| 2026-05-07 19:17 | 41.49866 | 28.77454 | 36107 ft | 400 kts | 322° |
| 2026-05-07 19:17 | 41.54320 | 28.73000 | 36111 ft | 401 kts | 322° |
| 2026-05-07 19:18 | 41.58801 | 28.68512 | 36114 ft | 403 kts | 321° |
| 2026-05-07 19:18 | 41.63300 | 28.63998 | 36114 ft | 405 kts | 321° |
| 2026-05-07 19:19 | 41.67814 | 28.59461 | 36115 ft | 407 kts | 321° |
| 2026-05-07 19:19 | 41.72349 | 28.54895 | 36115 ft | 408 kts | 321° |
| 2026-05-07 19:20 | 41.76891 | 28.50313 | 36115 ft | 409 kts | 321° |
| 2026-05-07 19:20 | 41.81420 | 28.45736 | 36114 ft | 410 kts | 321° |
| 2026-05-07 19:21 | 41.85947 | 28.41152 | 36103 ft | 408 kts | 321° |
| 2026-05-07 19:21 | 41.90452 | 28.36583 | 36106 ft | 405 kts | 321° |
| 2026-05-07 19:22 | 41.94947 | 28.32016 | 36111 ft | 404 kts | 321° |
| 2026-05-07 19:22 | 41.99437 | 28.27454 | 36112 ft | 404 kts | 321° |
| 2026-05-07 19:23 | 42.03963 | 28.22947 | 36109 ft | 405 kts | 322° |
| 2026-05-07 19:23 | 42.08509 | 28.18439 | 36111 ft | 406 kts | 322° |
| 2026-05-07 19:24 | 42.13064 | 28.13907 | 36112 ft | 408 kts | 322° |
| 2026-05-07 19:24 | 42.17625 | 28.09353 | 36108 ft | 409 kts | 321° |
| 2026-05-07 19:25 | 42.22210 | 28.04764 | 36108 ft | 411 kts | 321° |
| 2026-05-07 19:25 | 42.26799 | 28.00161 | 36109 ft | 412 kts | 321° |
| 2026-05-07 19:26 | 42.31403 | 27.95534 | 36106 ft | 413 kts | 321° |
| 2026-05-07 19:26 | 42.35986 | 27.90921 | 36101 ft | 413 kts | 321° |
| 2026-05-07 19:27 | 42.40616 | 27.86252 | 36100 ft | 410 kts | 321° |
| 2026-05-07 19:27 | 42.45175 | 27.81646 | 36099 ft | 408 kts | 321° |
| 2026-05-07 19:28 | 42.49721 | 27.77043 | 36106 ft | 409 kts | 321° |
| 2026-05-07 19:28 | 42.54312 | 27.72384 | 36112 ft | 415 kts | 321° |
| 2026-05-07 19:29 | 42.58943 | 27.67678 | 36108 ft | 417 kts | 321° |
| 2026-05-07 19:29 | 42.63606 | 27.62932 | 36104 ft | 419 kts | 321° |
| 2026-05-07 19:30 | 42.68277 | 27.58168 | 36096 ft | 419 kts | 321° |
| 2026-05-07 19:30 | 42.72945 | 27.53397 | 36103 ft | 419 kts | 321° |
| 2026-05-07 19:31 | 42.77559 | 27.48673 | 36103 ft | 417 kts | 320° |
| 2026-05-07 19:31 | 42.82191 | 27.43921 | 36094 ft | 416 kts | 320° |
| 2026-05-07 19:32 | 42.86803 | 27.39180 | 36084 ft | 415 kts | 320° |
| 2026-05-07 19:32 | 42.91408 | 27.34437 | 36094 ft | 413 kts | 320° |
| 2026-05-07 19:33 | 42.96000 | 27.29699 | 36086 ft | 413 kts | 320° |
| 2026-05-07 19:33 | 43.00577 | 27.24968 | 36101 ft | 412 kts | 320° |
| 2026-05-07 19:34 | 43.05148 | 27.20232 | 36084 ft | 412 kts | 320° |
| 2026-05-07 19:34 | 43.09716 | 27.15490 | 36086 ft | 413 kts | 320° |
| 2026-05-07 19:35 | 43.14304 | 27.10719 | 36084 ft | 415 kts | 320° |
| 2026-05-07 19:35 | 43.18905 | 27.05925 | 36079 ft | 416 kts | 320° |
| 2026-05-07 19:36 | 43.23492 | 27.01137 | 36081 ft | 418 kts | 320° |
| 2026-05-07 19:36 | 43.28133 | 26.96283 | 36071 ft | 419 kts | 320° |
| 2026-05-07 19:37 | 43.32776 | 26.91417 | 36074 ft | 420 kts | 320° |
| 2026-05-07 19:37 | 43.37429 | 26.86531 | 36066 ft | 421 kts | 320° |
| 2026-05-07 19:38 | 43.42115 | 26.81601 | 36067 ft | 422 kts | 320° |
| 2026-05-07 19:38 | 43.46777 | 26.76687 | 36065 ft | 422 kts | 320° |
| 2026-05-07 19:39 | 43.51438 | 26.71763 | 36055 ft | 422 kts | 320° |
| 2026-05-07 19:39 | 43.56133 | 26.66794 | 36056 ft | 422 kts | 319° |
| 2026-05-07 19:40 | 43.60742 | 26.61905 | 36051 ft | 421 kts | 319° |
| 2026-05-07 19:40 | 43.65418 | 26.56936 | 36047 ft | 421 kts | 319° |
| 2026-05-07 19:41 | 43.70062 | 26.51991 | 36049 ft | 421 kts | 319° |
| 2026-05-07 19:41 | 43.74674 | 26.47069 | 36043 ft | 421 kts | 319° |
| 2026-05-07 19:42 | 43.79335 | 26.42085 | 36040 ft | 421 kts | 319° |
| 2026-05-07 19:42 | 43.83969 | 26.37121 | 36039 ft | 421 kts | 319° |
| 2026-05-07 19:43 | 43.88573 | 26.32178 | 36033 ft | 421 kts | 319° |
| 2026-05-07 19:43 | 43.93221 | 26.27178 | 36037 ft | 421 kts | 319° |
| 2026-05-07 19:44 | 43.97902 | 26.22108 | 36032 ft | 420 kts | 317° |
| 2026-05-07 19:44 | 44.01950 | 26.16335 | 36036 ft | 418 kts | 309° |
| 2026-05-07 19:45 | 44.05835 | 26.10290 | 36041 ft | 420 kts | 309° |
| 2026-05-07 19:45 | 44.09743 | 26.04232 | 36037 ft | 421 kts | 309° |
| 2026-05-07 19:46 | 44.13670 | 25.98185 | 36028 ft | 419 kts | 309° |
| 2026-05-07 19:46 | 44.16911 | 25.93202 | 36028 ft | 417 kts | 309° |
| 2026-05-07 19:47 | 44.20789 | 25.87228 | 36035 ft | 415 kts | 309° |
| 2026-05-07 19:47 | 44.24649 | 25.81267 | 36043 ft | 414 kts | 309° |
| 2026-05-07 19:48 | 44.28499 | 25.75309 | 36043 ft | 414 kts | 309° |
| 2026-05-07 19:48 | 44.32356 | 25.69327 | 36049 ft | 416 kts | 309° |
| 2026-05-07 19:49 | 44.36232 | 25.63302 | 36053 ft | 418 kts | 309° |
| 2026-05-07 19:49 | 44.40126 | 25.57237 | 36052 ft | 420 kts | 309° |
| 2026-05-07 19:50 | 44.44034 | 25.51137 | 36048 ft | 422 kts | 309° |
| 2026-05-07 19:50 | 44.47935 | 25.45036 | 36040 ft | 421 kts | 308° |
| 2026-05-07 19:51 | 44.51790 | 25.38841 | 36049 ft | 420 kts | 308° |
| 2026-05-07 19:51 | 44.55590 | 25.32639 | 36051 ft | 419 kts | 307° |
| 2026-05-07 19:52 | 44.59383 | 25.26441 | 36049 ft | 418 kts | 307° |
| 2026-05-07 19:52 | 44.63175 | 25.20245 | 36052 ft | 418 kts | 307° |
| 2026-05-07 19:53 | 44.66966 | 25.14044 | 36056 ft | 418 kts | 307° |
| 2026-05-07 19:53 | 44.70730 | 25.07877 | 36056 ft | 419 kts | 307° |
| 2026-05-07 19:54 | 44.74523 | 25.01647 | 36059 ft | 420 kts | 307° |
| 2026-05-07 19:54 | 44.78328 | 24.95384 | 36059 ft | 421 kts | 307° |
| 2026-05-07 19:55 | 44.82131 | 24.89110 | 36061 ft | 422 kts | 307° |
| 2026-05-07 19:55 | 44.85938 | 24.82816 | 36061 ft | 423 kts | 307° |
| 2026-05-07 19:56 | 44.89750 | 24.76499 | 36068 ft | 423 kts | 307° |
| 2026-05-07 19:56 | 44.93593 | 24.70117 | 36064 ft | 424 kts | 307° |
| 2026-05-07 19:57 | 44.97417 | 24.63752 | 36066 ft | 424 kts | 307° |
| 2026-05-07 19:57 | 45.01235 | 24.57383 | 36046 ft | 424 kts | 307° |
| 2026-05-07 19:58 | 45.05045 | 24.51012 | 36067 ft | 424 kts | 307° |
| 2026-05-07 19:58 | 45.08847 | 24.44642 | 36057 ft | 424 kts | 307° |
| 2026-05-07 19:59 | 45.12641 | 24.38268 | 36078 ft | 423 kts | 307° |
| 2026-05-07 19:59 | 45.16428 | 24.31894 | 36067 ft | 422 kts | 306° |
| 2026-05-07 20:00 | 45.20177 | 24.25568 | 36066 ft | 422 kts | 306° |
| 2026-05-07 20:00 | 45.23976 | 24.19144 | 36078 ft | 422 kts | 306° |
| 2026-05-07 20:01 | 45.27716 | 24.12804 | 36084 ft | 422 kts | 306° |
| 2026-05-07 20:01 | 45.31506 | 24.06365 | 36074 ft | 422 kts | 306° |
| 2026-05-07 20:02 | 45.35267 | 23.99960 | 36071 ft | 422 kts | 306° |
| 2026-05-07 20:02 | 45.39025 | 23.93548 | 36079 ft | 422 kts | 306° |
| 2026-05-07 20:03 | 45.42806 | 23.87082 | 36077 ft | 421 kts | 306° |
| 2026-05-07 20:03 | 45.46551 | 23.80662 | 36087 ft | 421 kts | 306° |
| 2026-05-07 20:04 | 45.50267 | 23.74276 | 36084 ft | 422 kts | 306° |
| 2026-05-07 20:04 | 45.54014 | 23.67822 | 36082 ft | 423 kts | 306° |
| 2026-05-07 20:05 | 45.57761 | 23.61352 | 36086 ft | 424 kts | 306° |
| 2026-05-07 20:05 | 45.61518 | 23.54852 | 36073 ft | 424 kts | 306° |
| 2026-05-07 20:06 | 45.65272 | 23.48343 | 36073 ft | 425 kts | 306° |
| 2026-05-07 20:06 | 45.69036 | 23.41799 | 36059 ft | 425 kts | 305° |
| 2026-05-07 20:07 | 45.72786 | 23.35265 | 36067 ft | 425 kts | 305° |
| 2026-05-07 20:07 | 45.76543 | 23.28703 | 36061 ft | 426 kts | 305° |
| 2026-05-07 20:08 | 45.80272 | 23.22174 | 36056 ft | 426 kts | 305° |
| 2026-05-07 20:08 | 45.84029 | 23.15584 | 36052 ft | 425 kts | 305° |
| 2026-05-07 20:09 | 45.87754 | 23.09033 | 36049 ft | 422 kts | 305° |
| 2026-05-07 20:10 | 45.93303 | 22.99245 | 36047 ft | 420 kts | 305° |
| 2026-05-07 20:10 | 45.96980 | 22.92739 | 36048 ft | 419 kts | 305° |
| 2026-05-07 20:11 | 46.00651 | 22.86229 | 36055 ft | 419 kts | 305° |
| 2026-05-07 20:11 | 46.04321 | 22.79706 | 36053 ft | 419 kts | 305° |
| 2026-05-07 20:12 | 46.07989 | 22.73169 | 36057 ft | 420 kts | 305° |
| 2026-05-07 20:12 | 46.11661 | 22.66612 | 36050 ft | 421 kts | 305° |
| 2026-05-07 20:13 | 46.15342 | 22.60022 | 36044 ft | 423 kts | 305° |
| 2026-05-07 20:13 | 46.19031 | 22.53404 | 36044 ft | 424 kts | 305° |
| 2026-05-07 20:14 | 46.22723 | 22.46764 | 36045 ft | 424 kts | 304° |
| 2026-05-07 20:14 | 46.26410 | 22.40116 | 36056 ft | 424 kts | 304° |
| 2026-05-07 20:15 | 46.30135 | 22.33382 | 36049 ft | 426 kts | 304° |
| 2026-05-07 20:15 | 46.33836 | 22.26679 | 36043 ft | 427 kts | 304° |
| 2026-05-07 20:16 | 46.37655 | 22.20130 | 36043 ft | 430 kts | 308° |
| 2026-05-07 20:16 | 46.41742 | 22.13765 | 36038 ft | 431 kts | 309° |
| 2026-05-07 20:17 | 46.45868 | 22.07381 | 36042 ft | 431 kts | 309° |
| 2026-05-07 20:17 | 46.49940 | 22.01001 | 36040 ft | 430 kts | 308° |
| 2026-05-07 20:18 | 46.53991 | 21.94601 | 36029 ft | 430 kts | 308° |
| 2026-05-07 20:18 | 46.58040 | 21.88178 | 36027 ft | 430 kts | 308° |
| 2026-05-07 20:19 | 46.62069 | 21.81769 | 36028 ft | 429 kts | 308° |
| 2026-05-07 20:19 | 46.66083 | 21.75369 | 36025 ft | 428 kts | 308° |
| 2026-05-07 20:20 | 46.70097 | 21.68956 | 36025 ft | 427 kts | 308° |
| 2026-05-07 20:20 | 46.74097 | 21.62549 | 36026 ft | 427 kts | 308° |
| 2026-05-07 20:21 | 46.77415 | 21.57225 | 36028 ft | 426 kts | 307° |
| 2026-05-07 20:21 | 46.81397 | 21.50819 | 36027 ft | 426 kts | 307° |
| 2026-05-07 20:22 | 46.85370 | 21.44412 | 36022 ft | 425 kts | 307° |
| 2026-05-07 20:22 | 46.89337 | 21.38001 | 36022 ft | 425 kts | 307° |
| 2026-05-07 20:23 | 46.93298 | 21.31584 | 36027 ft | 425 kts | 307° |
| 2026-05-07 20:23 | 46.97252 | 21.25163 | 36024 ft | 425 kts | 307° |
| 2026-05-07 20:24 | 47.01210 | 21.18719 | 36024 ft | 425 kts | 307° |
| 2026-05-07 20:24 | 47.05175 | 21.12249 | 36024 ft | 425 kts | 307° |
| 2026-05-07 20:25 | 47.09124 | 21.05791 | 36025 ft | 425 kts | 307° |
| 2026-05-07 20:25 | 47.13065 | 20.99329 | 36021 ft | 425 kts | 307° |
| 2026-05-07 20:26 | 47.17005 | 20.92853 | 36022 ft | 425 kts | 306° |
| 2026-05-07 20:26 | 47.20942 | 20.86367 | 36017 ft | 425 kts | 306° |
| 2026-05-07 20:27 | 47.24854 | 20.79905 | 36030 ft | 425 kts | 306° |
| 2026-05-07 20:27 | 47.28794 | 20.73384 | 36024 ft | 425 kts | 306° |
| 2026-05-07 20:28 | 47.32722 | 20.66864 | 36020 ft | 425 kts | 306° |
| 2026-05-07 20:28 | 47.36648 | 20.60333 | 36040 ft | 425 kts | 306° |
| 2026-05-07 20:29 | 47.40577 | 20.53781 | 36024 ft | 425 kts | 306° |
| 2026-05-07 20:29 | 47.44498 | 20.47226 | 36026 ft | 425 kts | 306° |
| 2026-05-07 20:30 | 47.48411 | 20.40669 | 36024 ft | 426 kts | 306° |
| 2026-05-07 20:30 | 47.52327 | 20.34090 | 36027 ft | 426 kts | 306° |
| 2026-05-07 20:31 | 47.56238 | 20.27503 | 36027 ft | 426 kts | 305° |
| 2026-05-07 20:31 | 47.60136 | 20.20922 | 36030 ft | 426 kts | 305° |
| 2026-05-07 20:32 | 47.64059 | 20.14282 | 36032 ft | 426 kts | 305° |
| 2026-05-07 20:32 | 47.67964 | 20.07658 | 36028 ft | 427 kts | 305° |
| 2026-05-07 20:33 | 47.71878 | 20.00952 | 36032 ft | 425 kts | 302° |
| 2026-05-07 20:33 | 47.75303 | 19.93848 | 36037 ft | 422 kts | 298° |
| 2026-05-07 20:34 | 47.78608 | 19.86570 | 36034 ft | 422 kts | 298° |
| 2026-05-07 20:34 | 47.81881 | 19.79412 | 36033 ft | 421 kts | 298° |
| 2026-05-07 20:35 | 47.85192 | 19.72227 | 36035 ft | 420 kts | 298° |
| 2026-05-07 20:35 | 47.88518 | 19.65012 | 36031 ft | 419 kts | 298° |
| 2026-05-07 20:36 | 47.91811 | 19.57852 | 36037 ft | 418 kts | 298° |
| 2026-05-07 20:36 | 47.95086 | 19.50709 | 36040 ft | 417 kts | 298° |
| 2026-05-07 20:37 | 47.98359 | 19.43550 | 36033 ft | 417 kts | 298° |
| 2026-05-07 20:37 | 48.01627 | 19.36384 | 36039 ft | 418 kts | 298° |
| 2026-05-07 20:38 | 48.04902 | 19.29187 | 36035 ft | 419 kts | 298° |
| 2026-05-07 20:38 | 48.08313 | 19.21947 | 36031 ft | 422 kts | 301° |
| 2026-05-07 20:39 | 48.12056 | 19.14909 | 36040 ft | 424 kts | 303° |
| 2026-05-07 20:39 | 48.15754 | 19.08062 | 36046 ft | 426 kts | 303° |
| 2026-05-07 20:40 | 48.19460 | 19.01114 | 36040 ft | 427 kts | 302° |
| 2026-05-07 20:40 | 48.23153 | 18.94123 | 36043 ft | 428 kts | 302° |
| 2026-05-07 20:41 | 48.26893 | 18.87007 | 36038 ft | 429 kts | 302° |
| 2026-05-07 20:41 | 48.29950 | 18.81177 | 36039 ft | 429 kts | 302° |
| 2026-05-07 20:42 | 48.33662 | 18.74082 | 36044 ft | 429 kts | 302° |
| 2026-05-07 20:42 | 48.37375 | 18.66967 | 36035 ft | 429 kts | 302° |
| 2026-05-07 20:43 | 48.41071 | 18.59864 | 36038 ft | 429 kts | 302° |
| 2026-05-07 20:43 | 48.44744 | 18.52787 | 36043 ft | 429 kts | 302° |
| 2026-05-07 20:44 | 48.48418 | 18.45691 | 36035 ft | 430 kts | 302° |
| 2026-05-07 20:44 | 48.52102 | 18.38557 | 36042 ft | 430 kts | 302° |
| 2026-05-07 20:45 | 48.55764 | 18.31442 | 36034 ft | 433 kts | 302° |
| 2026-05-07 20:45 | 48.59454 | 18.24258 | 36024 ft | 432 kts | 302° |
| 2026-05-07 20:46 | 48.63131 | 18.17084 | 36023 ft | 431 kts | 302° |
| 2026-05-07 20:46 | 48.66803 | 18.09895 | 36028 ft | 432 kts | 303° |
| 2026-05-07 20:47 | 48.70478 | 18.02679 | 36030 ft | 433 kts | 303° |
| 2026-05-07 20:47 | 48.74181 | 17.95392 | 36035 ft | 434 kts | 303° |
| 2026-05-07 20:48 | 48.77830 | 17.88192 | 36006 ft | 434 kts | 303° |
| 2026-05-07 20:48 | 48.79660 | 17.84574 | 35724 ft | 430 kts | 303° |
| 2026-05-07 20:48 | 48.81470 | 17.80993 | 35484 ft | 424 kts | 303° |
| 2026-05-07 20:48 | 48.83247 | 17.77472 | 35244 ft | 418 kts | 303° |
| 2026-05-07 20:49 | 48.85008 | 17.73977 | 35002 ft | 416 kts | 303° |
| 2026-05-07 20:49 | 48.86722 | 17.70346 | 34767 ft | 414 kts | 296° |
| 2026-05-07 20:49 | 48.88059 | 17.66499 | 34549 ft | 411 kts | 291° |
| 2026-05-07 20:49 | 48.89297 | 17.62589 | 34322 ft | 410 kts | 291° |
| 2026-05-07 20:50 | 48.90507 | 17.58683 | 34085 ft | 407 kts | 291° |
| 2026-05-07 20:50 | 48.91708 | 17.54799 | 33821 ft | 405 kts | 291° |
| 2026-05-07 20:50 | 48.92911 | 17.50930 | 33550 ft | 404 kts | 291° |
| 2026-05-07 20:50 | 48.94115 | 17.47073 | 33284 ft | 402 kts | 291° |
| 2026-05-07 20:51 | 48.95317 | 17.43243 | 33016 ft | 400 kts | 291° |
| 2026-05-07 20:51 | 48.96547 | 17.39327 | 32743 ft | 398 kts | 290° |
| 2026-05-07 20:51 | 48.97739 | 17.35539 | 32483 ft | 396 kts | 290° |
| 2026-05-07 20:51 | 48.98924 | 17.31768 | 32220 ft | 394 kts | 290° |
| 2026-05-07 20:52 | 49.00103 | 17.28011 | 31977 ft | 392 kts | 290° |
| 2026-05-07 20:52 | 49.01290 | 17.24225 | 31723 ft | 390 kts | 290° |
| 2026-05-07 20:52 | 49.02456 | 17.20500 | 31468 ft | 388 kts | 290° |
| 2026-05-07 20:52 | 49.03614 | 17.16793 | 31212 ft | 385 kts | 290° |
| 2026-05-07 20:53 | 49.04774 | 17.13078 | 30965 ft | 383 kts | 290° |
| 2026-05-07 20:53 | 49.05914 | 17.09419 | 30718 ft | 381 kts | 289° |
| 2026-05-07 20:53 | 49.07045 | 17.05782 | 30474 ft | 378 kts | 289° |
| 2026-05-07 20:53 | 49.08168 | 17.02168 | 30235 ft | 375 kts | 289° |
| 2026-05-07 20:54 | 49.09279 | 16.98588 | 29990 ft | 371 kts | 289° |
| 2026-05-07 20:54 | 49.10381 | 16.95029 | 29703 ft | 369 kts | 289° |
| 2026-05-07 20:54 | 49.11462 | 16.91532 | 29421 ft | 368 kts | 289° |
| 2026-05-07 20:54 | 49.12549 | 16.88008 | 29141 ft | 366 kts | 289° |
| 2026-05-07 20:55 | 49.13634 | 16.84486 | 28863 ft | 365 kts | 289° |
| 2026-05-07 20:55 | 49.14712 | 16.80984 | 28581 ft | 364 kts | 289° |
| 2026-05-07 20:55 | 49.15785 | 16.77493 | 28309 ft | 363 kts | 289° |
| 2026-05-07 20:55 | 49.16858 | 16.73999 | 28039 ft | 362 kts | 289° |
| 2026-05-07 20:56 | 49.17923 | 16.70527 | 27773 ft | 360 kts | 289° |
| 2026-05-07 20:56 | 49.19002 | 16.67004 | 27500 ft | 358 kts | 289° |
| 2026-05-07 20:56 | 49.20068 | 16.63519 | 27234 ft | 357 kts | 290° |
| 2026-05-07 20:56 | 49.21103 | 16.60129 | 27026 ft | 352 kts | 290° |
| 2026-05-07 20:57 | 49.22134 | 16.56754 | 26730 ft | 347 kts | 290° |
| 2026-05-07 20:57 | 49.23166 | 16.53370 | 26381 ft | 337 kts | 290° |
| 2026-05-07 20:57 | 49.24145 | 16.50159 | 26053 ft | 328 kts | 290° |
| 2026-05-07 20:57 | 49.25108 | 16.46992 | 25730 ft | 319 kts | 290° |
| 2026-05-07 20:58 | 49.26032 | 16.43947 | 25420 ft | 311 kts | 290° |
| 2026-05-07 20:58 | 49.26935 | 16.40966 | 25142 ft | 308 kts | 290° |
| 2026-05-07 20:58 | 49.27833 | 16.37986 | 24857 ft | 308 kts | 290° |
| 2026-05-07 20:58 | 49.28427 | 16.36018 | 24651 ft | 308 kts | 290° |
| 2026-05-07 20:59 | 49.29625 | 16.32041 | 24252 ft | 308 kts | 290° |
| 2026-05-07 20:59 | 49.30232 | 16.30024 | 24038 ft | 308 kts | 290° |
| 2026-05-07 20:59 | 49.31127 | 16.27051 | 23734 ft | 307 kts | 290° |
| 2026-05-07 20:59 | 49.32020 | 16.24081 | 23396 ft | 306 kts | 291° |
| 2026-05-07 21:00 | 49.32908 | 16.21127 | 23047 ft | 304 kts | 291° |
| 2026-05-07 21:00 | 49.33791 | 16.18187 | 22748 ft | 302 kts | 291° |
| 2026-05-07 21:00 | 49.34659 | 16.15292 | 22435 ft | 299 kts | 291° |
| 2026-05-07 21:00 | 49.35540 | 16.12350 | 22121 ft | 297 kts | 291° |
| 2026-05-07 21:01 | 49.36396 | 16.09486 | 21826 ft | 294 kts | 291° |
| 2026-05-07 21:01 | 49.37248 | 16.06634 | 21519 ft | 293 kts | 291° |
| 2026-05-07 21:01 | 49.38092 | 16.03805 | 21242 ft | 290 kts | 291° |
| 2026-05-07 21:01 | 49.38932 | 16.00989 | 20937 ft | 289 kts | 291° |
| 2026-05-07 21:02 | 49.39763 | 15.98197 | 20646 ft | 287 kts | 291° |
| 2026-05-07 21:02 | 49.40590 | 15.95415 | 20353 ft | 285 kts | 291° |
| 2026-05-07 21:02 | 49.41452 | 15.92682 | 20087 ft | 283 kts | 293° |
| 2026-05-07 21:02 | 49.42359 | 15.90012 | 19852 ft | 281 kts | 294° |
| 2026-05-07 21:03 | 49.43273 | 15.87363 | 19595 ft | 279 kts | 294° |
| 2026-05-07 21:03 | 49.44180 | 15.84735 | 19349 ft | 278 kts | 294° |
| 2026-05-07 21:03 | 49.45094 | 15.82077 | 19120 ft | 277 kts | 294° |
| 2026-05-07 21:03 | 49.46002 | 15.79427 | 18919 ft | 277 kts | 294° |
| 2026-05-07 21:04 | 49.46897 | 15.76804 | 18642 ft | 279 kts | 294° |
| 2026-05-07 21:04 | 49.47798 | 15.74160 | 18368 ft | 278 kts | 294° |
| 2026-05-07 21:04 | 49.48696 | 15.71517 | 18045 ft | 278 kts | 294° |
| 2026-05-07 21:04 | 49.49588 | 15.68890 | 17731 ft | 276 kts | 294° |
| 2026-05-07 21:05 | 49.50474 | 15.66278 | 17430 ft | 274 kts | 294° |
| 2026-05-07 21:05 | 49.51356 | 15.63674 | 17145 ft | 273 kts | 294° |
| 2026-05-07 21:05 | 49.52239 | 15.61062 | 16859 ft | 271 kts | 294° |
| 2026-05-07 21:05 | 49.53105 | 15.58496 | 16578 ft | 269 kts | 294° |
| 2026-05-07 21:06 | 49.53968 | 15.55939 | 16300 ft | 268 kts | 294° |
| 2026-05-07 21:06 | 49.54822 | 15.53403 | 16015 ft | 266 kts | 294° |
| 2026-05-07 21:06 | 49.55671 | 15.50880 | 15737 ft | 265 kts | 294° |
| 2026-05-07 21:06 | 49.56515 | 15.48369 | 15460 ft | 263 kts | 294° |
| 2026-05-07 21:07 | 49.57353 | 15.45876 | 15186 ft | 261 kts | 294° |
| 2026-05-07 21:07 | 49.58184 | 15.43397 | 14919 ft | 260 kts | 294° |
| 2026-05-07 21:07 | 49.59014 | 15.40923 | 14648 ft | 258 kts | 294° |
| 2026-05-07 21:07 | 49.59839 | 15.38457 | 14376 ft | 258 kts | 294° |
| 2026-05-07 21:08 | 49.60654 | 15.36022 | 14100 ft | 256 kts | 294° |
| 2026-05-07 21:08 | 49.61509 | 15.33464 | 13827 ft | 255 kts | 294° |
| 2026-05-07 21:08 | 49.62312 | 15.31056 | 13526 ft | 255 kts | 294° |
| 2026-05-07 21:08 | 49.63122 | 15.28627 | 13236 ft | 254 kts | 294° |
| 2026-05-07 21:09 | 49.63928 | 15.26211 | 12963 ft | 253 kts | 294° |
| 2026-05-07 21:09 | 49.64740 | 15.23770 | 12683 ft | 252 kts | 294° |
| 2026-05-07 21:09 | 49.65537 | 15.21374 | 12429 ft | 250 kts | 294° |
| 2026-05-07 21:09 | 49.66328 | 15.18993 | 12156 ft | 248 kts | 294° |
| 2026-05-07 21:10 | 49.67114 | 15.16627 | 11885 ft | 247 kts | 294° |
| 2026-05-07 21:10 | 49.67961 | 15.14076 | 11594 ft | 246 kts | 294° |
| 2026-05-07 21:10 | 49.68706 | 15.11825 | 11337 ft | 245 kts | 294° |
| 2026-05-07 21:10 | 49.69470 | 15.09518 | 11081 ft | 244 kts | 294° |
| 2026-05-07 21:11 | 49.70241 | 15.07191 | 10811 ft | 243 kts | 295° |
| 2026-05-07 21:11 | 49.71157 | 15.04985 | 10558 ft | 244 kts | 304° |
| 2026-05-07 21:11 | 49.73261 | 15.00896 | 10137 ft | 230 kts | 305° |
| 2026-05-07 21:12 | 49.74244 | 14.98996 | 9990 ft | 224 kts | 305° |
| 2026-05-07 21:12 | 49.75224 | 14.97073 | 9743 ft | 223 kts | 305° |
| 2026-05-07 21:12 | 49.76168 | 14.95209 | 9473 ft | 218 kts | 304° |
| 2026-05-07 21:12 | 49.76481 | 14.94587 | 9384 ft | 217 kts | 304° |